Time;durP1;ratioP1;P1;durP2;ratioP2;P2;SDS_P1;SDS_P2;PMS_P1;PMS_P2;Temp;Humidity;BMP_temperature;BMP_pressure;BME280_temperature;BME280_humidity;BME280_pressure;Samples;Min_cycle;Max_cycle;Signal;HPM_P1;HPM_P2
2021/07/04 00:00:23;;;;;;;7.35;4.00;;;;;;;21.37;68.03;100681.25;4935681;29;20058;-75
2021/07/04 00:02:52;;;;;;;;;;;;;;;21.17;68.73;100672.25;4918759;29;20079;-75
2021/07/04 00:05:22;;;;;;;7.78;4.18;;;;;;;21.13;69.19;100671.44;4935876;29;19927;-74
2021/07/04 00:07:49;;;;;;;9.52;6.03;;;;;;;20.95;69.87;100664.81;4935109;29;20059;-75
2021/07/04 00:10:21;;;;;;;9.90;5.88;;;;;;;21.16;69.25;100659.44;4935972;29;20050;-74
2021/07/04 00:17:11;;;;;;;13.65;7.75;;;;;;;21.20;68.76;100658.28;4935381;29;20048;-74
2021/07/04 00:19:42;;;;;;;23.02;14.43;;;;;;;21.22;68.91;100664.31;4935011;29;20071;-74
2021/07/04 00:22:09;;;;;;;;;;;;;;;21.19;68.96;100659.47;4919990;29;20059;-74
2021/07/04 00:24:40;;;;;;;12.63;7.28;;;;;;;21.21;69.01;100654.31;4935649;29;19923;-74
2021/07/04 00:27:08;;;;;;;12.32;7.22;;;;;;;21.22;69.31;100655.09;4918829;29;20055;-73
2021/07/04 00:29:35;;;;;;;17.77;11.23;;;;;;;21.24;68.94;100650.72;4918562;29;20056;-76
2021/07/04 00:32:03;;;;;;;18.02;12.38;;;;;;;21.51;68.14;100645.75;4934846;29;20055;-73
2021/07/04 00:34:30;;;;;;;12.90;8.13;;;;;;;21.37;68.62;100634.41;4934995;29;20056;-74
2021/07/04 00:36:58;;;;;;;8.65;4.93;;;;;;;21.50;67.82;100637.69;4934984;29;20416;-74
2021/07/04 00:39:26;;;;;;;6.85;4.35;;;;;;;21.37;68.54;100633.59;4934941;29;20060;-73
2021/07/04 00:41:54;;;;;;;9.93;6.35;;;;;;;21.25;69.06;100631.91;4934516;29;20192;-74
2021/07/04 00:44:21;;;;;;;10.93;3.90;;;;;;;21.30;68.86;100630.75;4939494;29;20395;-74
2021/07/04 00:46:49;;;;;;;13.23;7.82;;;;;;;21.43;68.52;100632.84;4954475;29;20062;-73
2021/07/04 00:49:16;;;;;;;8.73;5.85;;;;;;;21.23;68.74;100635.09;4954579;29;20392;-76
2021/07/04 00:51:46;;;;;;;8.00;5.88;;;;;;;21.15;69.44;100638.22;4921691;28;20368;-76
2021/07/04 00:54:13;;;;;;;10.52;6.40;;;;;;;21.17;69.08;100622.63;4920792;29;20426;-76
2021/07/04 00:56:41;;;;;;;24.52;18.05;;;;;;;21.27;69.16;100626.72;4920791;29;20051;-76
2021/07/04 00:59:13;;;;;;;19.17;13.05;;;;;;;21.37;68.75;100628.81;4921559;29;20395;-76
2021/07/04 01:01:42;;;;;;;16.40;9.93;;;;;;;21.33;68.90;100624.34;4922058;29;20043;-76
2021/07/04 01:04:10;;;;;;;12.35;8.90;;;;;;;21.46;68.45;100618.09;4937117;29;20055;-74
2021/07/04 01:06:38;;;;;;;15.43;10.00;;;;;;;21.37;68.99;100619.59;4954068;29;20051;-75
2021/07/04 01:09:06;;;;;;;15.38;9.25;;;;;;;21.32;68.93;100612.38;4954549;29;20051;-75
2021/07/04 01:11:34;;;;;;;13.10;7.80;;;;;;;21.24;69.39;100610.69;4953896;29;20066;-75
2021/07/04 01:14:02;;;;;;;17.70;11.32;;;;;;;21.19;69.30;100609.06;4937186;29;20051;-74
2021/07/04 01:16:34;;;;;;;8.13;5.25;;;;;;;21.22;69.47;100611.06;4936588;29;20051;-73
2021/07/04 01:19:03;;;;;;;6.35;3.92;;;;;;;21.23;69.21;100609.09;4954260;29;20047;-73
2021/07/04 01:21:33;;;;;;;9.57;4.90;;;;;;;21.14;69.46;100609.41;4936873;29;20047;-74
2021/07/04 01:24:01;;;;;;;10.70;4.93;;;;;;;20.92;70.36;100610.34;4936705;29;20066;-73
2021/07/04 01:26:28;;;;;;;9.45;5.28;;;;;;;21.11;70.07;100612.97;4952896;29;20047;-74
2021/07/04 01:28:56;;;;;;;8.32;4.13;;;;;;;20.99;70.60;100610.47;4935867;29;20062;-73
2021/07/04 01:31:26;;;;;;;11.18;5.40;;;;;;;21.01;70.54;100616.47;4936397;29;20050;-74
2021/07/04 01:33:59;;;;;;;8.02;4.78;;;;;;;21.19;69.48;100614.66;4953733;29;20055;-76
2021/07/04 01:36:38;;;;;;;7.47;4.57;;;;;;;20.76;71.00;100612.63;4936262;29;20055;-74
2021/07/04 01:39:07;;;;;;;7.65;3.83;;;;;;;20.70;71.79;100611.34;4936508;29;20051;-74
2021/07/04 01:41:40;;;;;;;8.50;3.50;;;;;;;20.73;72.17;100607.78;4953170;29;20059;-75
2021/07/04 01:44:18;;;;;;;7.53;4.32;;;;;;;20.62;72.65;100606.06;4937878;29;20050;-76
2021/07/04 01:46:46;;;;;;;8.07;4.43;;;;;;;20.75;72.40;100601.78;4936028;29;20059;-75
2021/07/04 01:49:14;;;;;;;7.65;4.20;;;;;;;20.42;73.92;100601.81;4920488;29;20407;-75
2021/07/04 01:51:43;;;;;;;6.75;4.35;;;;;;;20.50;73.41;100604.34;4920823;29;20051;-76
2021/07/04 01:54:18;;;;;;;7.22;4.50;;;;;;;20.71;72.65;100603.75;4921198;29;20071;-76
2021/07/04 01:56:47;;;;;;;7.10;3.90;;;;;;;20.43;73.80;100606.25;4936352;29;20063;-74
2021/07/04 01:59:15;;;;;;;7.40;3.85;;;;;;;20.45;74.19;100607.47;4953263;29;20521;-74
2021/07/04 02:02:02;;;;;;;6.05;3.75;;;;;;;20.47;74.02;100605.09;4953149;29;20070;-73
2021/07/04 02:04:42;;;;;;;19.05;10.98;;;;;;;20.69;73.04;100604.16;4922456;29;20056;-76
2021/07/04 02:07:25;;;;;;;8.48;4.80;;;;;;;20.46;73.69;100600.69;4911376;29;20051;-75
2021/07/04 02:09:59;;;;;;;10.45;6.32;;;;;;;20.73;72.92;100599.38;4940393;29;20043;-75
2021/07/04 02:12:36;;;;;;;13.88;8.45;;;;;;;20.70;72.91;100591.75;4957189;29;20141;-76
2021/07/04 02:15:13;;;;;;;10.30;6.60;;;;;;;20.63;73.34;100586.06;4939509;29;20399;-75
2021/07/04 02:17:51;;;;;;;32.25;21.13;;;;;;;20.63;73.36;100597.28;4939204;29;20066;-75
2021/07/04 02:20:50;;;;;;;25.23;16.30;;;;;;;20.62;73.09;100601.28;4882344;29;20061;-74
2021/07/04 02:23:44;;;;;;;22.08;11.50;;;;;;;20.59;73.78;100604.81;4896981;29;20060;-74
2021/07/04 02:30:44;;;;;;;14.48;9.57;;;;;;;20.42;74.45;100585.84;4879107;29;20057;-75
2021/07/04 02:33:14;;;;;;;23.55;15.20;;;;;;;20.71;72.83;100587.75;4879077;29;20053;-73
2021/07/04 02:35:50;;;;;;;18.35;12.57;;;;;;;20.44;74.04;100591.88;4878580;29;20060;-72
2021/07/04 02:38:18;;;;;;;11.95;5.85;;;;;;;20.24;74.63;100592.44;4862911;29;20069;-73
2021/07/04 02:40:54;;;;;;;13.93;8.32;;;;;;;20.51;73.87;100591.94;4863665;29;20533;-75
2021/07/04 02:43:25;;;;;;;18.77;11.63;;;;;;;20.50;73.83;100589.53;4878925;29;20057;-74
2021/07/04 02:45:56;;;;;;;8.65;5.20;;;;;;;20.46;74.21;100594.28;4878156;29;20119;-75
2021/07/04 02:48:24;;;;;;;7.90;5.10;;;;;;;20.33;74.79;100604.91;4878342;29;20057;-75
2021/07/04 02:50:52;;;;;;;11.45;4.57;;;;;;;20.39;74.78;100608.19;4863416;29;20057;-73
2021/07/04 02:53:26;;;;;;;10.18;4.70;;;;;;;20.37;75.01;100594.59;4878506;29;20453;-74
2021/07/04 02:55:57;;;;;;;8.57;4.38;;;;;;;20.38;74.60;100598.19;4863316;29;20053;-74
2021/07/04 02:58:30;;;;;;;6.05;3.70;;;;;;;20.40;74.63;100590.22;4927613;29;20067;-74
2021/07/04 03:00:58;;;;;;;6.78;3.97;;;;;;;20.45;74.36;100593.47;4955919;29;20051;-74
2021/07/04 03:03:27;;;;;;;5.22;3.47;;;;;;;20.24;74.95;100584.84;4939332;29;20099;-73
2021/07/04 03:05:56;;;;;;;6.72;3.90;;;;;;;20.49;74.16;100588.72;4938218;29;20051;-73
2021/07/04 03:08:23;;;;;;;7.35;4.13;;;;;;;20.62;73.40;100584.47;4938838;29;20059;-72
2021/07/04 03:10:52;;;;;;;6.65;3.70;;;;;;;20.40;74.31;100593.81;4939114;29;20062;-73
2021/07/04 03:13:28;;;;;;;7.32;3.80;;;;;;;20.40;74.05;100585.41;4922867;29;20055;-74
2021/07/04 03:15:57;;;;;;;6.70;3.75;;;;;;;20.21;75.20;100584.81;4937789;29;20044;-74
2021/07/04 03:18:25;;;;;;;5.47;3.10;;;;;;;20.31;74.85;100576.50;4956299;29;20043;-74
2021/07/04 03:20:52;;;;;;;4.95;3.17;;;;;;;20.43;74.60;100572.66;4939153;29;20058;-74
2021/07/04 03:23:21;;;;;;;6.05;3.15;;;;;;;20.54;73.75;100568.00;4939889;29;20055;-75
2021/07/04 03:25:54;;;;;;;6.13;3.45;;;;;;;20.45;73.73;100559.09;4940213;29;20050;-75
2021/07/04 03:28:24;;;;;;;5.47;3.05;;;;;;;20.50;73.47;100562.38;4926687;29;20051;-75
2021/07/04 03:30:56;;;;;;;6.25;2.92;;;;;;;20.55;73.52;100555.59;4941953;29;20051;-75
2021/07/04 03:33:23;;;;;;;6.00;3.47;;;;;;;20.48;74.09;100556.34;4926016;29;20048;-75
2021/07/04 03:35:51;;;;;;;5.30;3.33;;;;;;;20.36;74.21;100562.22;4942905;29;20047;-75
2021/07/04 03:38:19;;;;;;;6.75;3.30;;;;;;;20.54;73.71;100549.19;4941829;29;20518;-76
2021/07/04 03:40:49;;;;;;;9.63;3.00;;;;;;;20.52;73.42;100561.97;4940770;29;20047;-75
2021/07/04 03:43:27;;;;;;;6.80;3.15;;;;;;;20.54;73.62;100565.19;4926140;29;20402;-74
2021/07/04 03:45:55;;;;;;;5.65;3.30;;;;;;;20.57;73.50;100575.63;4960860;29;20071;-75
2021/07/04 03:48:25;;;;;;;;;;;;;;;20.61;73.27;100579.25;4942698;29;20048;-74
2021/07/04 03:51:01;;;;;;;5.85;2.85;;;;;;;20.63;72.73;100582.47;4942877;29;19923;-75
2021/07/04 03:53:32;;;;;;;9.75;2.78;;;;;;;20.39;72.87;100581.03;4942563;29;20057;-75
2021/07/04 03:56:00;;;;;;;4.85;2.90;;;;;;;20.26;73.91;100578.88;4942277;29;20556;-74
2021/07/04 03:58:30;;;;;;;6.73;2.90;;;;;;;20.17;73.81;100575.56;4943694;29;20066;-76
2021/07/04 04:00:59;;;;;;;5.43;2.42;;;;;;;20.11;74.29;100570.28;4959324;29;20054;-75
2021/07/04 04:03:35;;;;;;;6.00;3.00;;;;;;;20.27;73.54;100572.06;4925433;29;20054;-73
2021/07/04 04:06:08;;;;;;;11.70;2.78;;;;;;;20.38;74.04;100564.63;4939502;29;20060;-74
2021/07/04 04:08:41;;;;;;;8.63;3.28;;;;;;;20.33;74.25;100570.56;4925518;29;20055;-74
2021/07/04 04:11:13;;;;;;;6.32;2.97;;;;;;;19.94;75.93;100576.47;4939552;29;20051;-75
2021/07/04 04:13:46;;;;;;;8.18;3.33;;;;;;;19.88;75.88;100568.75;4940664;29;20043;-73
2021/07/04 04:16:19;;;;;;;9.15;3.10;;;;;;;19.97;75.87;100574.88;4939007;29;20055;-74
2021/07/04 04:18:48;;;;;;;8.73;3.15;;;;;;;19.99;76.11;100572.50;4937246;29;20059;-73
2021/07/04 04:21:16;;;;;;;12.10;2.90;;;;;;;19.92;75.58;100570.44;4937519;29;20047;-73
2021/07/04 04:23:52;;;;;;;8.25;3.63;;;;;;;20.11;74.67;100566.66;4937010;29;20051;-72
2021/07/04 04:26:23;;;;;;;7.63;3.40;;;;;;;19.70;76.78;100576.91;4941317;29;20047;-73
2021/07/04 04:28:53;;;;;;;5.05;3.13;;;;;;;19.61;77.63;100575.59;4938218;29;20066;-73
2021/07/04 04:31:20;;;;;;;4.60;2.85;;;;;;;19.50;78.79;100571.81;4937174;29;20047;-74
2021/07/04 04:33:50;;;;;;;7.03;3.05;;;;;;;19.64;78.59;100556.06;4937099;29;20047;-73
2021/07/04 04:36:18;;;;;;;5.97;2.80;;;;;;;19.61;79.36;100550.44;4954652;29;20047;-72
2021/07/04 04:38:45;;;;;;;6.75;3.15;;;;;;;19.39;80.15;100543.72;4936587;29;20506;-73
2021/07/04 04:41:13;;;;;;;6.20;2.67;;;;;;;19.28;80.57;100542.75;4953922;29;20505;-74
2021/07/04 04:43:41;;;;;;;6.68;2.90;;;;;;;19.45;80.12;100550.63;4954387;29;20071;-74
2021/07/04 04:46:08;;;;;;;8.00;3.20;;;;;;;19.68;78.66;100556.13;4953147;29;20054;-73
2021/07/04 04:48:36;;;;;;;6.30;3.03;;;;;;;19.67;79.31;100557.28;4936694;29;20062;-74
2021/07/04 04:51:03;;;;;;;6.03;2.95;;;;;;;19.57;79.65;100560.75;4936420;29;20379;-74
2021/07/04 04:53:30;;;;;;;5.93;2.85;;;;;;;19.53;80.00;100559.88;4954301;29;20364;-74
2021/07/04 04:55:59;;;;;;;7.35;3.00;;;;;;;19.40;80.29;100564.91;4936597;29;20075;-74
2021/07/04 04:58:27;;;;;;;5.45;3.15;;;;;;;19.36;80.76;100572.41;4953758;29;20051;-75
2021/07/04 05:00:54;;;;;;;5.60;2.65;;;;;;;19.33;81.40;100581.56;4953760;29;20047;-76
2021/07/04 05:03:21;;;;;;;6.57;3.10;;;;;;;19.31;81.79;100578.31;4953549;29;20078;-75
2021/07/04 05:05:49;;;;;;;6.82;3.05;;;;;;;19.42;81.32;100578.50;4937025;29;20059;-74
2021/07/04 05:08:16;;;;;;;7.35;3.08;;;;;;;19.12;81.62;100583.16;4954071;29;20423;-74
2021/07/04 05:10:45;;;;;;;9.13;2.92;;;;;;;19.30;81.54;100581.47;4936880;29;20442;-74
2021/07/04 05:13:13;;;;;;;5.45;3.28;;;;;;;19.45;80.67;100583.31;4936670;29;20055;-73
2021/07/04 05:20:06;;;;;;;6.70;3.03;;;;;;;19.24;81.52;100591.34;4953694;29;20074;-75
2021/07/04 05:22:34;;;;;;;7.45;3.10;;;;;;;19.26;81.47;100589.78;4936801;29;20058;-73
2021/07/04 05:25:03;;;;;;;5.55;2.65;;;;;;;19.20;82.12;100588.47;4953813;29;20050;-76
2021/07/04 05:27:31;;;;;;;8.82;3.10;;;;;;;19.25;81.78;100582.56;4953930;29;20074;-74
2021/07/04 05:29:59;;;;;;;4.72;2.92;;;;;;;19.46;80.67;100582.13;4952963;29;20348;-73
2021/07/04 05:32:26;;;;;;;7.75;2.75;;;;;;;19.28;81.22;100576.25;4936383;29;20047;-74
2021/07/04 05:34:54;;;;;;;7.65;3.58;;;;;;;19.33;81.34;100580.75;4954151;29;20474;-74
2021/07/04 05:37:22;;;;;;;6.88;2.92;;;;;;;19.47;80.38;100572.56;4953838;29;20051;-75
2021/07/04 05:39:49;;;;;;;5.45;2.67;;;;;;;19.43;80.36;100571.72;4953123;28;20053;-74
2021/07/04 05:42:17;;;;;;;6.43;2.85;;;;;;;19.60;80.19;100565.56;4953481;29;20051;-74
2021/07/04 05:44:44;;;;;;;5.55;2.92;;;;;;;19.53;79.83;100563.50;4934570;29;20058;-74
2021/07/04 05:47:13;;;;;;;9.57;3.08;;;;;;;19.67;79.51;100558.09;4953021;29;20051;-74
2021/07/04 05:49:40;;;;;;;7.55;2.97;;;;;;;19.56;79.55;100561.94;4936043;29;20071;-74
2021/07/04 05:52:07;;;;;;;4.72;2.58;;;;;;;19.61;79.17;100556.03;4953143;29;20058;-75
2021/07/04 05:54:37;;;;;;;5.70;2.60;;;;;;;19.53;79.47;100562.69;4953513;29;20399;-75
2021/07/04 05:57:07;;;;;;;7.40;2.60;;;;;;;19.65;79.13;100562.47;4936069;29;20778;-75
2021/07/04 05:59:34;;;;;;;;;;;;;;;19.81;77.74;100563.88;4953727;29;20058;-75
2021/07/04 06:02:02;;;;;;;6.07;2.70;;;;;;;19.70;78.11;100574.09;4953992;29;20281;-75
2021/07/04 06:04:31;;;;;;;6.20;2.45;;;;;;;19.51;79.01;100568.63;4953488;29;20495;-77
2021/07/04 06:06:59;;;;;;;6.60;2.40;;;;;;;19.49;78.79;100582.19;4953553;29;20054;-75
2021/07/04 06:09:26;;;;;;;10.10;2.60;;;;;;;19.49;78.83;100576.59;4952955;29;20069;-74
2021/07/04 06:11:53;;;;;;;6.22;2.70;;;;;;;19.69;77.99;100574.50;4952776;29;20055;-74
2021/07/04 06:14:21;;;;;;;6.30;2.60;;;;;;;19.58;79.20;100573.56;4952697;29;20400;-75
2021/07/04 06:16:48;;;;;;;10.80;2.90;;;;;;;19.90;77.19;100570.00;4936274;29;20052;-75
2021/07/04 06:19:16;;;;;;;7.80;2.95;;;;;;;19.89;77.18;100576.75;4953417;29;20059;-75
2021/07/04 06:21:43;;;;;;;7.22;2.85;;;;;;;19.81;77.63;100571.47;4952673;29;20051;-75
2021/07/04 06:24:11;;;;;;;6.45;2.78;;;;;;;19.85;76.59;100578.72;4935452;29;20052;-75
2021/07/04 06:26:38;;;;;;;10.85;3.30;;;;;;;20.00;76.54;100579.69;4935745;29;20067;-76
2021/07/04 06:33:29;;;;;;;5.57;2.30;;;;;;;19.80;75.95;100579.06;4953738;29;20039;-75
2021/07/04 06:35:56;;;;;;;12.15;5.28;;;;;;;19.79;76.97;100569.03;4953648;29;20588;-75
2021/07/04 06:38:24;;;;;;;6.00;2.30;;;;;;;19.95;76.06;100571.66;4936525;29;20422;-76
2021/07/04 06:40:51;;;;;;;10.07;2.60;;;;;;;19.90;75.79;100563.59;4953499;29;20071;-76
2021/07/04 06:43:19;;;;;;;13.02;2.70;;;;;;;20.03;74.74;100570.56;4952540;29;20514;-76
2021/07/04 06:50:22;;;;;;;6.18;2.42;;;;;;;19.98;75.17;100568.09;4933749;29;20060;-75
2021/07/04 06:52:49;;;;;;;5.28;2.47;;;;;;;19.90;74.07;100558.81;4936878;29;20487;-75
2021/07/04 06:55:18;;;;;;;7.50;2.40;;;;;;;20.08;73.50;100568.22;4937285;29;20062;-78
2021/07/04 06:57:45;;;;;;;4.18;2.20;;;;;;;19.99;73.21;100566.91;4937642;29;20056;-76
2021/07/04 07:04:36;;;;;;;5.55;2.70;;;;;;;19.49;75.34;100570.22;4936955;29;20151;-73
2021/07/04 07:07:04;;;;;;;7.47;2.47;;;;;;;19.02;76.89;100574.22;4937407;29;20074;-73
2021/07/04 07:09:31;;;;;;;4.82;2.40;;;;;;;18.90;79.52;100574.41;4937266;29;20399;-73
2021/07/04 07:11:58;;;;;;;6.25;2.75;;;;;;;19.31;78.74;100564.38;4937295;29;20499;-75
2021/07/04 07:14:32;;;;;;;9.23;2.28;;;;;;;19.38;77.70;100556.09;4937425;29;20039;-77
2021/07/04 07:16:59;;;;;;;6.93;2.92;;;;;;;19.33;76.99;100564.78;4937138;29;20054;-73
2021/07/04 07:19:27;;;;;;;7.03;2.40;;;;;;;19.19;77.99;100560.94;4937486;29;20063;-74
2021/07/04 07:21:54;;;;;;;5.10;2.42;;;;;;;19.37;78.24;100571.22;4936905;29;20048;-73
2021/07/04 07:24:22;;;;;;;4.32;2.60;;;;;;;19.49;77.24;100567.44;4936812;29;20067;-75
2021/07/04 07:26:51;;;;;;;6.00;2.30;;;;;;;19.74;76.64;100563.78;4936482;29;20048;-74
2021/07/04 07:29:25;;;;;;;5.72;2.55;;;;;;;20.06;75.09;100572.59;4936843;29;20043;-73
2021/07/04 07:36:20;;;;;;;8.68;3.03;;;;;;;20.50;73.23;100581.97;4919321;29;20514;-76
2021/07/04 07:38:48;;;;;;;6.25;2.80;;;;;;;20.36;73.19;100590.19;4936558;29;20048;-75
2021/07/04 07:41:20;;;;;;;6.80;2.38;;;;;;;20.00;73.63;100596.47;4936743;29;20059;-74
2021/07/04 07:43:48;;;;;;;5.38;2.83;;;;;;;19.96;74.25;100588.03;4919392;29;20052;-74
2021/07/04 07:51:13;;;;;;;6.90;2.95;;;;;;;20.15;73.59;100590.69;4916695;29;20071;-74
2021/07/04 07:53:42;;;;;;;8.93;2.08;;;;;;;20.28;72.40;100601.66;4919619;29;20062;-74
2021/07/04 07:56:10;;;;;;;6.68;2.55;;;;;;;20.15;71.64;100592.69;4919148;29;20071;-73
2021/07/04 07:58:47;;;;;;;6.18;2.28;;;;;;;20.33;72.48;100599.31;4918606;29;20468;-74
2021/07/04 08:05:41;;;;;;;12.73;2.80;;;;;;;20.41;72.45;100592.63;4918347;29;20051;-74
2021/07/04 08:08:09;;;;;;;4.75;2.30;;;;;;;20.63;71.43;100607.66;4936037;29;20047;-73
2021/07/04 08:10:37;;;;;;;8.63;2.42;;;;;;;20.67;70.59;100603.72;4918806;29;20048;-73
2021/07/04 08:13:04;;;;;;;6.40;2.25;;;;;;;20.61;70.15;100577.25;4918568;29;20062;-76
2021/07/04 08:15:32;;;;;;;7.00;2.17;;;;;;;20.77;69.29;100575.03;4919221;29;20048;-73
2021/07/04 08:18:04;;;;;;;7.85;2.30;;;;;;;20.49;68.91;100569.13;4918043;29;20507;-74
2021/07/04 08:20:32;;;;;;;11.88;2.70;;;;;;;20.17;71.37;100552.00;4935779;29;20419;-74
2021/07/04 08:22:59;;;;;;;6.18;2.50;;;;;;;19.99;72.57;100559.34;4935230;29;20067;-76
2021/07/04 08:25:27;;;;;;;11.43;2.70;;;;;;;19.84;72.45;100549.16;4934961;29;20491;-75
2021/07/04 08:27:54;;;;;;;6.95;2.35;;;;;;;19.23;73.95;100545.06;4935277;29;20048;-76
2021/07/04 08:30:22;;;;;;;4.07;2.25;;;;;;;19.35;74.28;100537.31;4935435;29;20048;-75
2021/07/04 08:32:49;;;;;;;6.03;2.38;;;;;;;19.23;75.02;100545.06;4917774;29;20055;-75
2021/07/04 08:35:16;;;;;;;8.85;3.33;;;;;;;19.10;76.80;100541.66;4917890;29;20416;-75
2021/07/04 08:37:44;;;;;;;11.48;3.33;;;;;;;19.14;76.50;100539.72;4935208;29;20059;-75
2021/07/04 08:40:13;;;;;;;5.35;2.42;;;;;;;19.39;77.01;100545.69;4935150;29;20514;-75
2021/07/04 08:42:40;;;;;;;7.25;3.00;;;;;;;19.70;75.93;100562.16;4934419;29;20052;-74
2021/07/04 08:45:08;;;;;;;5.88;2.75;;;;;;;20.26;74.82;100557.28;4934866;29;20063;-74
2021/07/04 08:52:13;;;;;;;11.00;2.60;;;;;;;20.95;71.76;100558.38;4935542;29;20039;-76
2021/07/04 08:54:41;;;;;;;7.60;2.88;;;;;;;20.77;71.59;100555.44;4935368;29;20058;-73
2021/07/04 08:57:09;;;;;;;6.63;2.10;;;;;;;20.89;69.28;100554.31;4918220;29;20062;-76
2021/07/04 08:59:41;;;;;;;6.40;2.50;;;;;;;20.94;69.87;100549.19;4917546;29;20511;-75
2021/07/04 09:06:46;;;;;;;4.20;1.67;;;;;;;21.26;66.92;100543.84;4935072;29;20098;-74
2021/07/04 09:09:24;;;;;;;6.68;1.95;;;;;;;21.40;66.14;100549.56;4934808;29;20401;-73
2021/07/04 09:11:51;;;;;;;3.97;1.58;;;;;;;21.05;64.54;100540.91;4934836;29;20051;-74
2021/07/04 09:14:31;;;;;;;6.55;1.77;;;;;;;20.89;66.86;100543.94;4933920;29;20047;-76
2021/07/04 09:21:22;;;;;;;6.55;2.13;;;;;;;21.60;65.72;100552.91;4917448;29;20051;-74
2021/07/04 09:23:51;;;;;;;3.17;1.33;;;;;;;22.01;60.87;100546.72;4933881;29;20421;-76
2021/07/04 09:26:41;;;;;;;4.97;1.60;;;;;;;21.97;61.99;100551.50;4917572;29;20495;-76
2021/07/04 09:29:09;;;;;;;4.00;1.30;;;;;;;21.76;61.92;100531.75;4934030;29;20055;-75
2021/07/04 09:36:08;;;;;;;3.53;1.50;;;;;;;22.04;62.19;100526.28;4934276;29;20052;-75
2021/07/04 09:38:41;;;;;;;6.50;2.20;;;;;;;22.23;61.90;100519.53;4934012;29;20400;-76
2021/07/04 09:41:10;;;;;;;5.57;1.80;;;;;;;22.19;61.77;100524.34;4933908;29;20055;-77
2021/07/04 09:43:38;;;;;;;3.83;1.25;;;;;;;22.26;60.00;100522.34;4917887;29;20392;-76
2021/07/04 09:46:12;;;;;;;4.38;1.60;;;;;;;22.11;61.37;100522.72;4918463;29;20059;-74
2021/07/04 09:48:41;;;;;;;7.15;1.55;;;;;;;22.17;60.27;100521.13;4935247;29;20058;-76
2021/07/04 09:51:15;;;;;;;4.68;1.60;;;;;;;21.97;61.64;100523.47;4910004;29;20074;-75
2021/07/04 09:53:48;;;;;;;4.22;1.60;;;;;;;22.05;62.39;100516.69;4937257;29;20060;-74
2021/07/04 09:56:23;;;;;;;6.75;2.00;;;;;;;22.13;61.65;100512.72;4934437;29;20051;-76
2021/07/04 09:58:58;;;;;;;6.00;2.03;;;;;;;22.02;62.22;100511.84;4934196;29;20059;-77
2021/07/04 10:01:45;;;;;;;5.45;1.60;;;;;;;22.01;61.78;100509.44;4886261;29;20508;-74
2021/07/04 10:04:51;;;;;;;3.55;1.50;;;;;;;21.72;61.83;100516.94;4934849;29;20048;-77
2021/07/04 10:07:45;;;;;;;4.88;2.03;;;;;;;22.05;62.07;100505.47;4902851;29;20051;-76
2021/07/04 10:10:12;;;;;;;3.45;1.90;;;;;;;22.03;61.75;100507.88;4923844;29;20071;-77
2021/07/04 10:12:40;;;;;;;5.57;2.55;;;;;;;22.32;60.37;100506.75;4933771;29;20068;-76
2021/07/04 10:15:08;;;;;;;6.45;2.47;;;;;;;22.42;60.00;100501.56;4935296;29;20468;-76
2021/07/04 10:17:41;;;;;;;3.78;1.77;;;;;;;22.64;59.20;100500.41;4917305;29;20047;-76
2021/07/04 10:20:10;;;;;;;4.57;1.67;;;;;;;22.86;57.35;100491.59;4917411;29;20044;-76
2021/07/04 10:22:38;;;;;;;4.95;1.80;;;;;;;23.04;57.12;100494.38;4934361;29;20055;-74
2021/07/04 10:25:06;;;;;;;5.03;2.00;;;;;;;23.18;56.26;100492.38;4933421;29;20059;-75
2021/07/04 10:27:41;;;;;;;4.60;1.60;;;;;;;23.48;54.74;100485.50;4921330;29;20059;-75
2021/07/04 10:30:10;;;;;;;3.90;1.25;;;;;;;23.32;55.24;100478.31;4936879;29;20472;-74
2021/07/04 10:32:37;;;;;;;3.88;1.20;;;;;;;23.18;54.65;100483.94;4937164;29;20048;-73
2021/07/04 10:35:17;;;;;;;4.45;1.55;;;;;;;22.79;56.26;100479.53;4938165;29;20530;-74
2021/07/04 10:37:45;;;;;;;2.70;1.13;;;;;;;23.09;56.96;100482.75;4905387;29;20048;-74
2021/07/04 10:40:19;;;;;;;5.80;1.40;;;;;;;22.83;55.77;100491.59;4936952;29;20060;-74
2021/07/04 10:42:46;;;;;;;3.78;1.10;;;;;;;22.77;56.63;100479.16;4937352;29;20051;-75
2021/07/04 10:45:37;;;;;;;2.78;1.00;;;;;;;22.85;55.58;100475.13;4919988;29;20056;-74
2021/07/04 10:48:18;;;;;;;4.25;1.70;;;;;;;22.72;55.11;100476.72;4937264;29;20055;-73
2021/07/04 10:51:08;;;;;;;7.05;1.65;;;;;;;22.06;57.69;100487.44;4927007;29;20427;-73
2021/07/04 10:53:52;;;;;;;7.28;1.40;;;;;;;22.04;58.14;100487.03;4955736;29;20063;-75
2021/07/04 10:56:34;;;;;;;6.50;2.38;;;;;;;22.34;59.40;100489.50;4939637;29;20051;-74
2021/07/04 10:59:14;;;;;;;3.35;1.58;;;;;;;22.52;60.17;100490.34;4956611;29;20043;-76
2021/07/04 11:06:00;;;;;;;4.85;1.70;;;;;;;22.67;59.58;100477.94;4956746;29;20495;-75
2021/07/04 11:08:30;;;;;;;5.47;1.63;;;;;;;22.86;59.01;100474.72;4923431;29;20086;-75
2021/07/04 11:11:06;;;;;;;4.15;1.92;;;;;;;23.22;58.73;100464.25;4955514;29;20082;-74
2021/07/04 11:13:42;;;;;;;5.72;1.83;;;;;;;23.55;55.64;100457.38;4956248;29;20056;-76
2021/07/04 11:16:13;;;;;;;7.20;3.33;;;;;;;23.33;56.39;100449.00;4939554;29;20055;-77
2021/07/04 11:18:44;;;;;;;5.05;2.20;;;;;;;23.37;57.02;100446.97;4938696;29;20488;-77
2021/07/04 11:21:12;;;;;;;;;;;;;;;23.79;56.46;100431.94;4939691;29;20414;-76
2021/07/04 11:23:40;;;;;;;5.38;2.30;;;;;;;23.88;55.43;100434.31;4923372;29;19922;-75
2021/07/04 11:26:07;;;;;;;8.80;2.38;;;;;;;23.88;54.66;100435.13;4939151;29;20064;-75
2021/07/04 11:28:39;;;;;;;7.68;1.95;;;;;;;23.93;54.13;100423.44;4956156;29;20066;-76
2021/07/04 11:31:12;;;;;;;5.10;1.67;;;;;;;24.11;53.67;100434.63;4955860;29;20055;-74
2021/07/04 11:33:42;;;;;;;3.20;1.30;;;;;;;24.24;52.39;100430.09;4955731;29;20055;-74
2021/07/04 11:36:22;;;;;;;6.80;3.65;;;;;;;24.64;51.28;100423.75;4955246;28;20057;-75
2021/07/04 11:39:02;;;;;;;3.90;1.60;;;;;;;24.55;51.47;100412.16;4907253;29;20047;-75
2021/07/04 11:41:34;;;;;;;3.25;1.40;;;;;;;24.50;51.08;100412.59;4938679;29;20051;-75
2021/07/04 11:44:04;;;;;;;3.25;1.70;;;;;;;24.72;51.30;100419.72;4955334;29;20505;-75
2021/07/04 11:46:34;;;;;;;4.60;1.70;;;;;;;24.42;52.22;100425.97;4955843;29;20487;-76
2021/07/04 11:49:08;;;;;;;5.47;1.55;;;;;;;24.12;51.98;100414.50;4955652;29;20047;-75
2021/07/04 11:52:01;;;;;;;4.38;1.60;;;;;;;24.49;51.25;100409.00;4935070;29;20064;-75
2021/07/04 11:54:29;;;;;;;5.22;1.73;;;;;;;24.62;51.66;100416.94;4955031;29;20051;-76
2021/07/04 12:00:07;;;;;;;3.72;1.25;;;;;;;24.46;50.33;100412.63;4955200;29;20062;-75
2021/07/04 12:07:09;;;;;;;4.72;1.50;;;;;;;24.44;50.87;100408.66;4955610;29;20277;-76
2021/07/04 12:09:38;;;;;;;5.13;2.88;;;;;;;24.49;51.49;100411.81;4954742;29;20475;-77
2021/07/04 12:12:29;;;;;;;8.57;3.63;;;;;;;24.62;51.57;100416.94;4955357;29;20044;-76
2021/07/04 12:15:03;;;;;;;4.47;1.90;;;;;;;24.31;52.42;100427.22;4938414;29;20055;-75
2021/07/04 12:17:38;;;;;;;5.85;1.40;;;;;;;24.01;52.81;100424.22;4938119;29;20062;-75
2021/07/04 12:20:12;;;;;;;3.30;1.48;;;;;;;23.33;55.58;100422.88;4955130;29;20089;-75
2021/07/04 12:22:42;;;;;;;8.30;2.30;;;;;;;22.79;59.08;100424.19;4954977;29;20051;-74
2021/07/04 12:25:18;;;;;;;5.10;1.80;;;;;;;22.51;60.86;100435.38;4921308;29;20479;-74
2021/07/04 12:27:54;;;;;;;4.88;1.83;;;;;;;22.38;61.54;100422.16;4938188;29;20050;-75
2021/07/04 12:30:21;;;;;;;7.07;2.20;;;;;;;22.62;61.49;100419.38;4954142;29;20070;-77
2021/07/04 12:32:57;;;;;;;4.82;2.63;;;;;;;22.61;61.87;100420.59;4954656;29;20058;-76
2021/07/04 12:35:27;;;;;;;9.77;4.47;;;;;;;22.24;63.85;100417.34;4937735;29;20069;-76
2021/07/04 12:38:00;;;;;;;3.85;1.83;;;;;;;22.32;63.50;100411.31;4954784;29;20055;-77
2021/07/04 12:40:32;;;;;;;6.13;2.45;;;;;;;22.57;62.58;100413.38;4954089;29;20495;-77
2021/07/04 12:43:08;;;;;;;5.05;1.90;;;;;;;22.42;63.31;100418.13;4920575;29;20422;-77
2021/07/04 12:45:36;;;;;;;6.55;2.08;;;;;;;22.45;63.03;100417.34;4955267;29;20051;-76
2021/07/04 12:48:05;;;;;;;13.30;2.17;;;;;;;22.54;63.53;100415.00;4954060;28;20043;-77
2021/07/04 12:50:57;;;;;;;4.88;1.60;;;;;;;22.95;61.74;100406.91;4953114;29;20062;-77